sensor_id;sensor_type;location;lat;lon;timestamp;pressure;altitude;pressure_sealevel;temperature;humidity
48624;BME280;34422;45.802;16.114;2022-12-24T00:00:08;99784.63;;;9.27;100.00
48624;BME280;34422;45.802;16.114;2022-12-24T00:02:36;99786.25;;;9.35;100.00
48624;BME280;34422;45.802;16.114;2022-12-24T00:05:03;99802.84;;;9.38;100.00
48624;BME280;34422;45.802;16.114;2022-12-24T00:07:30;99806.53;;;9.44;100.00
48624;BME280;34422;45.802;16.114;2022-12-24T00:09:57;99798.84;;;9.47;100.00
48624;BME280;34422;45.802;16.114;2022-12-24T00:12:24;99810.31;;;9.43;100.00
48624;BME280;34422;45.802;16.114;2022-12-24T00:14:53;99803.47;;;9.40;100.00
48624;BME280;34422;45.802;16.114;2022-12-24T00:17:21;99809.91;;;9.39;100.00
48624;BME280;34422;45.802;16.114;2022-12-24T00:19:48;99805.97;;;9.35;100.00
48624;BME280;34422;45.802;16.114;2022-12-24T00:22:14;99799.16;;;9.26;100.00
48624;BME280;34422;45.802;16.114;2022-12-24T00:24:41;99801.94;;;9.13;100.00
48624;BME280;34422;45.802;16.114;2022-12-24T00:27:08;99805.06;;;9.10;100.00
48624;BME280;34422;45.802;16.114;2022-12-24T00:29:36;99807.53;;;9.11;100.00
48624;BME280;34422;45.802;16.114;2022-12-24T00:32:02;99805.47;;;9.07;100.00
48624;BME280;34422;45.802;16.114;2022-12-24T00:34:33;99813.38;;;9.08;100.00
48624;BME280;34422;45.802;16.114;2022-12-24T00:37:02;99812.31;;;9.09;100.00
48624;BME280;34422;45.802;16.114;2022-12-24T00:39:29;99812.91;;;9.18;100.00
48624;BME280;34422;45.802;16.114;2022-12-24T00:41:56;99817.88;;;9.21;100.00
48624;BME280;34422;45.802;16.114;2022-12-24T00:44:23;99809.00;;;9.45;100.00
48624;BME280;34422;45.802;16.114;2022-12-24T00:46:50;99803.53;;;9.58;100.00
48624;BME280;34422;45.802;16.114;2022-12-24T00:49:17;99805.94;;;9.73;100.00
48624;BME280;34422;45.802;16.114;2022-12-24T00:51:44;99786.31;;;9.84;100.00
48624;BME280;34422;45.802;16.114;2022-12-24T00:54:12;99792.72;;;9.90;100.00
48624;BME280;34422;45.802;16.114;2022-12-24T00:56:39;99787.03;;;9.98;100.00
48624;BME280;34422;45.802;16.114;2022-12-24T00:59:07;99802.56;;;10.09;100.00
48624;BME280;34422;45.802;16.114;2022-12-24T01:01:34;99795.41;;;10.21;100.00
48624;BME280;34422;45.802;16.114;2022-12-24T01:04:02;99789.41;;;10.19;100.00
48624;BME280;34422;45.802;16.114;2022-12-24T01:06:48;99796.03;;;10.23;100.00
48624;BME280;34422;45.802;16.114;2022-12-24T01:09:14;99814.13;;;10.23;100.00
48624;BME280;34422;45.802;16.114;2022-12-24T01:11:41;99817.66;;;10.23;100.00
48624;BME280;34422;45.802;16.114;2022-12-24T01:14:08;99812.25;;;10.23;100.00
48624;BME280;34422;45.802;16.114;2022-12-24T01:16:35;99820.50;;;10.28;100.00
48624;BME280;34422;45.802;16.114;2022-12-24T01:19:02;99814.66;;;10.31;100.00
48624;BME280;34422;45.802;16.114;2022-12-24T01:21:29;99813.63;;;10.32;100.00
48624;BME280;34422;45.802;16.114;2022-12-24T01:23:56;99815.94;;;10.29;100.00
48624;BME280;34422;45.802;16.114;2022-12-24T01:26:22;99819.69;;;10.28;100.00
48624;BME280;34422;45.802;16.114;2022-12-24T01:28:49;99820.94;;;10.25;100.00
48624;BME280;34422;45.802;16.114;2022-12-24T01:31:17;99810.75;;;10.27;100.00
48624;BME280;34422;45.802;16.114;2022-12-24T01:33:47;99807.28;;;10.20;100.00
48624;BME280;34422;45.802;16.114;2022-12-24T01:36:14;99804.44;;;10.09;100.00
48624;BME280;34422;45.802;16.114;2022-12-24T01:38:41;99801.00;;;9.95;100.00
48624;BME280;34422;45.802;16.114;2022-12-24T01:41:17;99804.59;;;9.89;100.00
48624;BME280;34422;45.802;16.114;2022-12-24T01:44:24;99798.13;;;9.90;100.00
48624;BME280;34422;45.802;16.114;2022-12-24T01:47:02;99810.41;;;9.86;100.00
48624;BME280;34422;45.802;16.114;2022-12-24T01:49:32;99809.22;;;9.82;100.00
48624;BME280;34422;45.802;16.114;2022-12-24T01:52:13;99814.25;;;9.72;100.00
48624;BME280;34422;45.802;16.114;2022-12-24T01:54:46;99817.22;;;9.63;100.00
48624;BME280;34422;45.802;16.114;2022-12-24T01:57:38;99809.41;;;9.55;100.00
48624;BME280;34422;45.802;16.114;2022-12-24T02:00:10;99806.50;;;9.50;100.00
48624;BME280;34422;45.802;16.114;2022-12-24T02:02:40;99815.47;;;9.44;100.00
48624;BME280;34422;45.802;16.114;2022-12-24T02:05:11;99805.13;;;9.41;100.00
48624;BME280;34422;45.802;16.114;2022-12-24T02:07:41;99808.84;;;9.40;100.00
48624;BME280;34422;45.802;16.114;2022-12-24T02:10:12;99809.91;;;9.39;100.00
48624;BME280;34422;45.802;16.114;2022-12-24T02:12:39;99820.69;;;9.39;100.00
48624;BME280;34422;45.802;16.114;2022-12-24T02:15:10;99824.38;;;9.51;100.00
48624;BME280;34422;45.802;16.114;2022-12-24T02:17:39;99837.69;;;9.46;100.00
48624;BME280;34422;45.802;16.114;2022-12-24T02:26:30;99825.69;;;9.42;100.00
48624;BME280;34422;45.802;16.114;2022-12-24T02:31:41;99829.91;;;9.25;100.00
48624;BME280;34422;45.802;16.114;2022-12-24T02:34:27;99820.78;;;9.26;100.00
48624;BME280;34422;45.802;16.114;2022-12-24T02:37:06;99804.16;;;9.29;100.00
48624;BME280;34422;45.802;16.114;2022-12-24T02:39:43;99806.44;;;9.25;100.00
48624;BME280;34422;45.802;16.114;2022-12-24T02:42:16;99795.44;;;9.27;100.00
48624;BME280;34422;45.802;16.114;2022-12-24T02:44:51;99802.50;;;9.21;100.00
48624;BME280;34422;45.802;16.114;2022-12-24T02:47:23;99805.19;;;9.21;100.00
48624;BME280;34422;45.802;16.114;2022-12-24T02:49:52;99807.97;;;9.08;100.00
48624;BME280;34422;45.802;16.114;2022-12-24T02:52:34;99821.72;;;9.00;100.00
48624;BME280;34422;45.802;16.114;2022-12-24T02:55:25;99827.97;;;8.87;100.00
48624;BME280;34422;45.802;16.114;2022-12-24T03:04:06;99827.97;;;8.87;100.00
48624;BME280;34422;45.802;16.114;2022-12-24T03:07:01;99831.09;;;8.84;100.00
48624;BME280;34422;45.802;16.114;2022-12-24T03:09:37;99819.28;;;8.79;100.00
48624;BME280;34422;45.802;16.114;2022-12-24T03:12:33;99820.94;;;8.86;100.00
48624;BME280;34422;45.802;16.114;2022-12-24T03:15:03;99814.69;;;8.86;100.00
48624;BME280;34422;45.802;16.114;2022-12-24T03:17:33;99822.34;;;8.96;100.00
48624;BME280;34422;45.802;16.114;2022-12-24T03:20:04;99836.63;;;9.03;100.00
48624;BME280;34422;45.802;16.114;2022-12-24T03:22:33;99852.41;;;9.06;100.00
48624;BME280;34422;45.802;16.114;2022-12-24T03:25:01;99857.75;;;9.19;100.00
48624;BME280;34422;45.802;16.114;2022-12-24T03:27:30;99859.19;;;9.28;100.00
48624;BME280;34422;45.802;16.114;2022-12-24T03:29:58;99868.50;;;9.32;100.00
48624;BME280;34422;45.802;16.114;2022-12-24T03:32:29;99850.41;;;9.39;100.00
48624;BME280;34422;45.802;16.114;2022-12-24T03:34:56;99851.81;;;9.48;100.00
48624;BME280;34422;45.802;16.114;2022-12-24T03:37:24;99852.69;;;9.42;100.00
48624;BME280;34422;45.802;16.114;2022-12-24T03:39:51;99847.28;;;9.36;100.00
48624;BME280;34422;45.802;16.114;2022-12-24T03:42:18;99856.03;;;9.31;100.00
48624;BME280;34422;45.802;16.114;2022-12-24T03:44:45;99865.16;;;9.30;100.00
48624;BME280;34422;45.802;16.114;2022-12-24T03:47:12;99864.34;;;9.30;100.00
48624;BME280;34422;45.802;16.114;2022-12-24T03:49:38;99872.84;;;9.33;100.00
48624;BME280;34422;45.802;16.114;2022-12-24T03:52:05;99877.81;;;9.36;100.00
48624;BME280;34422;45.802;16.114;2022-12-24T03:54:32;99885.53;;;9.33;100.00
48624;BME280;34422;45.802;16.114;2022-12-24T03:56:59;99890.53;;;9.29;100.00
48624;BME280;34422;45.802;16.114;2022-12-24T03:59:26;99884.28;;;9.35;100.00
48624;BME280;34422;45.802;16.114;2022-12-24T04:01:53;99887.09;;;9.53;100.00
48624;BME280;34422;45.802;16.114;2022-12-24T04:04:20;99880.81;;;9.59;100.00
48624;BME280;34422;45.802;16.114;2022-12-24T04:06:46;99876.47;;;9.58;100.00
48624;BME280;34422;45.802;16.114;2022-12-24T04:09:13;99889.97;;;9.65;100.00
48624;BME280;34422;45.802;16.114;2022-12-24T04:11:40;99898.28;;;9.63;100.00
48624;BME280;34422;45.802;16.114;2022-12-24T04:14:07;99877.97;;;9.54;100.00
48624;BME280;34422;45.802;16.114;2022-12-24T04:16:34;99884.22;;;9.48;100.00
48624;BME280;34422;45.802;16.114;2022-12-24T04:19:00;99895.84;;;9.49;100.00
48624;BME280;34422;45.802;16.114;2022-12-24T04:21:28;99900.50;;;9.29;100.00
48624;BME280;34422;45.802;16.114;2022-12-24T04:23:55;99919.22;;;9.17;100.00
48624;BME280;34422;45.802;16.114;2022-12-24T04:26:22;99907.19;;;9.13;100.00
48624;BME280;34422;45.802;16.114;2022-12-24T04:28:49;99907.13;;;9.33;100.00
48624;BME280;34422;45.802;16.114;2022-12-24T04:31:16;99902.13;;;9.36;100.00
48624;BME280;34422;45.802;16.114;2022-12-24T04:33:44;99906.13;;;9.72;100.00
48624;BME280;34422;45.802;16.114;2022-12-24T04:36:14;99912.25;;;9.92;100.00
48624;BME280;34422;45.802;16.114;2022-12-24T04:38:43;99906.94;;;10.10;100.00
48624;BME280;34422;45.802;16.114;2022-12-24T04:41:13;99912.13;;;10.12;100.00
48624;BME280;34422;45.802;16.114;2022-12-24T04:43:40;99917.41;;;10.38;100.00
48624;BME280;34422;45.802;16.114;2022-12-24T04:46:16;99921.28;;;10.67;100.00
48624;BME280;34422;45.802;16.114;2022-12-24T04:49:04;99925.84;;;10.73;100.00
48624;BME280;34422;45.802;16.114;2022-12-24T04:51:31;99925.56;;;10.99;100.00
48624;BME280;34422;45.802;16.114;2022-12-24T04:53:59;99924.13;;;10.97;100.00
48624;BME280;34422;45.802;16.114;2022-12-24T04:56:28;99934.31;;;11.01;100.00
48624;BME280;34422;45.802;16.114;2022-12-24T04:58:55;99939.59;;;11.15;100.00
48624;BME280;34422;45.802;16.114;2022-12-24T05:01:24;99937.63;;;11.22;100.00
48624;BME280;34422;45.802;16.114;2022-12-24T05:03:52;99938.09;;;11.19;100.00
48624;BME280;34422;45.802;16.114;2022-12-24T05:06:23;99932.81;;;11.24;100.00
48624;BME280;34422;45.802;16.114;2022-12-24T05:08:53;99942.38;;;11.26;100.00
48624;BME280;34422;45.802;16.114;2022-12-24T05:11:21;99949.25;;;11.47;100.00
48624;BME280;34422;45.802;16.114;2022-12-24T05:13:48;99945.72;;;11.47;100.00
48624;BME280;34422;45.802;16.114;2022-12-24T05:16:16;99931.69;;;11.50;100.00
48624;BME280;34422;45.802;16.114;2022-12-24T05:18:43;99929.28;;;11.42;100.00
48624;BME280;34422;45.802;16.114;2022-12-24T05:21:12;99929.59;;;11.33;100.00
48624;BME280;34422;45.802;16.114;2022-12-24T05:23:40;99929.81;;;11.32;100.00
48624;BME280;34422;45.802;16.114;2022-12-24T05:28:59;99930.56;;;11.39;100.00
48624;BME280;34422;45.802;16.114;2022-12-24T05:31:27;99924.25;;;11.45;100.00
48624;BME280;34422;45.802;16.114;2022-12-24T05:33:54;99913.03;;;11.42;100.00
48624;BME280;34422;45.802;16.114;2022-12-24T05:36:22;99920.78;;;11.38;100.00
48624;BME280;34422;45.802;16.114;2022-12-24T05:38:50;99916.94;;;11.27;100.00
48624;BME280;34422;45.802;16.114;2022-12-24T05:41:17;99916.66;;;11.17;100.00
48624;BME280;34422;45.802;16.114;2022-12-24T05:43:44;99913.41;;;11.09;100.00
48624;BME280;34422;45.802;16.114;2022-12-24T05:46:13;99927.22;;;11.00;100.00
48624;BME280;34422;45.802;16.114;2022-12-24T05:48:40;99932.69;;;10.94;100.00
48624;BME280;34422;45.802;16.114;2022-12-24T05:51:09;99933.81;;;10.86;100.00
48624;BME280;34422;45.802;16.114;2022-12-24T05:53:37;99938.72;;;10.78;100.00
48624;BME280;34422;45.802;16.114;2022-12-24T05:56:04;99926.25;;;10.70;100.00
48624;BME280;34422;45.802;16.114;2022-12-24T05:58:31;99940.63;;;10.71;100.00
48624;BME280;34422;45.802;16.114;2022-12-24T06:01:00;99950.19;;;10.73;100.00
48624;BME280;34422;45.802;16.114;2022-12-24T06:03:28;99949.13;;;10.74;100.00
48624;BME280;34422;45.802;16.114;2022-12-24T06:06:07;99943.75;;;10.67;100.00
48624;BME280;34422;45.802;16.114;2022-12-24T06:08:35;99935.72;;;10.61;100.00
48624;BME280;34422;45.802;16.114;2022-12-24T06:11:05;99948.91;;;10.51;100.00
48624;BME280;34422;45.802;16.114;2022-12-24T06:13:33;99961.72;;;10.37;100.00
48624;BME280;34422;45.802;16.114;2022-12-24T06:16:02;99958.22;;;10.30;100.00
48624;BME280;34422;45.802;16.114;2022-12-24T06:18:31;99959.47;;;10.27;100.00
48624;BME280;34422;45.802;16.114;2022-12-24T06:20:59;99972.38;;;10.25;100.00
48624;BME280;34422;45.802;16.114;2022-12-24T06:23:29;99974.69;;;10.15;100.00
48624;BME280;34422;45.802;16.114;2022-12-24T06:26:06;99986.59;;;10.08;100.00
48624;BME280;34422;45.802;16.114;2022-12-24T06:28:36;99993.75;;;9.95;100.00
48624;BME280;34422;45.802;16.114;2022-12-24T06:31:04;100001.88;;;9.89;100.00
48624;BME280;34422;45.802;16.114;2022-12-24T06:33:32;100003.56;;;9.77;100.00
48624;BME280;34422;45.802;16.114;2022-12-24T06:35:59;100007.56;;;9.68;100.00
48624;BME280;34422;45.802;16.114;2022-12-24T06:38:29;99993.06;;;9.55;100.00
48624;BME280;34422;45.802;16.114;2022-12-24T06:40:56;99986.44;;;9.51;100.00
48624;BME280;34422;45.802;16.114;2022-12-24T06:43:23;99989.38;;;9.37;100.00
48624;BME280;34422;45.802;16.114;2022-12-24T06:45:50;99991.25;;;9.23;100.00
48624;BME280;34422;45.802;16.114;2022-12-24T06:48:17;99996.06;;;9.08;100.00
48624;BME280;34422;45.802;16.114;2022-12-24T06:50:44;99987.38;;;8.99;100.00
48624;BME280;34422;45.802;16.114;2022-12-24T06:53:11;99991.72;;;8.94;100.00
48624;BME280;34422;45.802;16.114;2022-12-24T06:55:38;99988.19;;;8.86;100.00
48624;BME280;34422;45.802;16.114;2022-12-24T06:58:05;99994.00;;;8.83;100.00
48624;BME280;34422;45.802;16.114;2022-12-24T07:00:32;99987.34;;;8.79;100.00
48624;BME280;34422;45.802;16.114;2022-12-24T07:02:59;99991.09;;;8.72;100.00
48624;BME280;34422;45.802;16.114;2022-12-24T07:05:26;100003.13;;;8.69;100.00
48624;BME280;34422;45.802;16.114;2022-12-24T07:07:52;99990.06;;;8.66;100.00
48624;BME280;34422;45.802;16.114;2022-12-24T07:10:20;100007.91;;;8.67;100.00
48624;BME280;34422;45.802;16.114;2022-12-24T07:12:47;100001.47;;;8.68;100.00
48624;BME280;34422;45.802;16.114;2022-12-24T07:15:15;99999.41;;;8.70;100.00
48624;BME280;34422;45.802;16.114;2022-12-24T07:17:42;99993.59;;;8.80;100.00
48624;BME280;34422;45.802;16.114;2022-12-24T07:20:11;99994.22;;;8.82;100.00
48624;BME280;34422;45.802;16.114;2022-12-24T07:22:39;100006.03;;;8.94;100.00
48624;BME280;34422;45.802;16.114;2022-12-24T07:25:06;100008.13;;;8.99;100.00
48624;BME280;34422;45.802;16.114;2022-12-24T07:27:33;100018.06;;;9.05;100.00
48624;BME280;34422;45.802;16.114;2022-12-24T07:29:59;100030.75;;;9.11;100.00
48624;BME280;34422;45.802;16.114;2022-12-24T07:32:26;100035.09;;;9.18;100.00
48624;BME280;34422;45.802;16.114;2022-12-24T07:34:53;100030.53;;;9.25;100.00
48624;BME280;34422;45.802;16.114;2022-12-24T07:37:20;100019.91;;;9.31;100.00
48624;BME280;34422;45.802;16.114;2022-12-24T07:39:46;100019.50;;;9.40;100.00
48624;BME280;34422;45.802;16.114;2022-12-24T07:42:13;100020.09;;;9.49;100.00
48624;BME280;34422;45.802;16.114;2022-12-24T07:44:40;100017.59;;;9.54;100.00
48624;BME280;34422;45.802;16.114;2022-12-24T07:47:07;100018.38;;;9.68;100.00
48624;BME280;34422;45.802;16.114;2022-12-24T07:49:34;100001.50;;;9.79;100.00
48624;BME280;34422;45.802;16.114;2022-12-24T07:52:02;100019.13;;;9.88;100.00
48624;BME280;34422;45.802;16.114;2022-12-24T07:54:29;100018.63;;;10.04;100.00
48624;BME280;34422;45.802;16.114;2022-12-24T07:56:56;100008.81;;;10.16;100.00
48624;BME280;34422;45.802;16.114;2022-12-24T07:59:23;100015.63;;;10.25;100.00
48624;BME280;34422;45.802;16.114;2022-12-24T08:01:50;100032.66;;;10.32;100.00
48624;BME280;34422;45.802;16.114;2022-12-24T08:04:17;100047.16;;;10.45;100.00
48624;BME280;34422;45.802;16.114;2022-12-24T08:06:43;100063.75;;;10.55;100.00
48624;BME280;34422;45.802;16.114;2022-12-24T08:09:10;100066.44;;;10.55;100.00
48624;BME280;34422;45.802;16.114;2022-12-24T08:11:39;100085.38;;;10.55;100.00
48624;BME280;34422;45.802;16.114;2022-12-24T08:14:06;100091.59;;;10.62;100.00
48624;BME280;34422;45.802;16.114;2022-12-24T08:16:33;100072.88;;;10.60;100.00
48624;BME280;34422;45.802;16.114;2022-12-24T08:19:00;100079.91;;;10.68;100.00
48624;BME280;34422;45.802;16.114;2022-12-24T08:21:26;100076.53;;;10.79;100.00
48624;BME280;34422;45.802;16.114;2022-12-24T08:23:53;100069.44;;;10.78;100.00
48624;BME280;34422;45.802;16.114;2022-12-24T08:26:20;100085.69;;;10.78;100.00
48624;BME280;34422;45.802;16.114;2022-12-24T08:28:47;100084.63;;;10.79;100.00
48624;BME280;34422;45.802;16.114;2022-12-24T08:31:13;100094.38;;;10.80;100.00
48624;BME280;34422;45.802;16.114;2022-12-24T08:33:41;100091.69;;;10.80;100.00
48624;BME280;34422;45.802;16.114;2022-12-24T08:36:08;100078.59;;;10.77;100.00
48624;BME280;34422;45.802;16.114;2022-12-24T08:38:35;100081.09;;;10.79;100.00
48624;BME280;34422;45.802;16.114;2022-12-24T08:41:02;100082.78;;;10.73;100.00
48624;BME280;34422;45.802;16.114;2022-12-24T08:43:29;100085.16;;;10.63;100.00
48624;BME280;34422;45.802;16.114;2022-12-24T08:46:00;100091.59;;;10.62;100.00
48624;BME280;34422;45.802;16.114;2022-12-24T08:48:27;100099.88;;;10.67;100.00
48624;BME280;34422;45.802;16.114;2022-12-24T08:50:54;100111.09;;;10.71;100.00
48624;BME280;34422;45.802;16.114;2022-12-24T08:53:21;100119.63;;;10.74;100.00
48624;BME280;34422;45.802;16.114;2022-12-24T08:55:48;100124.63;;;10.77;100.00
48624;BME280;34422;45.802;16.114;2022-12-24T08:58:14;100129.56;;;10.80;100.00
48624;BME280;34422;45.802;16.114;2022-12-24T09:00:41;100134.13;;;10.86;100.00
48624;BME280;34422;45.802;16.114;2022-12-24T09:03:13;100139.72;;;10.91;100.00
48624;BME280;34422;45.802;16.114;2022-12-24T09:05:40;100144.69;;;10.94;100.00
48624;BME280;34422;45.802;16.114;2022-12-24T09:08:07;100145.53;;;10.95;100.00
48624;BME280;34422;45.802;16.114;2022-12-24T09:10:33;100152.66;;;10.89;100.00
48624;BME280;34422;45.802;16.114;2022-12-24T09:13:00;100140.94;;;10.95;100.00
48624;BME280;34422;45.802;16.114;2022-12-24T09:15:27;100140.50;;;10.98;100.00
48624;BME280;34422;45.802;16.114;2022-12-24T09:17:54;100148.19;;;11.01;100.00
48624;BME280;34422;45.802;16.114;2022-12-24T09:20:20;100136.94;;;11.04;100.00
48624;BME280;34422;45.802;16.114;2022-12-24T09:22:47;100147.28;;;11.14;100.00
48624;BME280;34422;45.802;16.114;2022-12-24T09:25:14;100136.63;;;11.19;100.00
48624;BME280;34422;45.802;16.114;2022-12-24T09:27:41;100144.75;;;11.19;100.00
48624;BME280;34422;45.802;16.114;2022-12-24T09:30:08;100145.41;;;11.15;100.00
48624;BME280;34422;45.802;16.114;2022-12-24T09:32:35;100151.84;;;11.14;100.00
48624;BME280;34422;45.802;16.114;2022-12-24T09:35:02;100157.50;;;11.12;100.00
48624;BME280;34422;45.802;16.114;2022-12-24T09:37:29;100149.47;;;10.99;100.00
48624;BME280;34422;45.802;16.114;2022-12-24T09:39:56;100145.06;;;11.04;100.00
48624;BME280;34422;45.802;16.114;2022-12-24T09:42:50;100149.25;;;11.00;100.00
48624;BME280;34422;45.802;16.114;2022-12-24T09:45:32;100146.72;;;11.06;100.00
48624;BME280;34422;45.802;16.114;2022-12-24T09:48:26;100147.31;;;11.08;100.00
48624;BME280;34422;45.802;16.114;2022-12-24T09:54:07;100153.31;;;11.16;100.00
48624;BME280;34422;45.802;16.114;2022-12-24T09:56:42;100171.69;;;11.08;100.00
48624;BME280;34422;45.802;16.114;2022-12-24T09:59:20;100171.69;;;11.08;100.00
48624;BME280;34422;45.802;16.114;2022-12-24T10:01:50;100169.59;;;11.10;100.00
48624;BME280;34422;45.802;16.114;2022-12-24T10:04:20;100169.59;;;11.10;100.00
48624;BME280;34422;45.802;16.114;2022-12-24T10:09:47;100173.22;;;11.28;100.00
48624;BME280;34422;45.802;16.114;2022-12-24T10:12:29;100178.94;;;11.45;100.00
48624;BME280;34422;45.802;16.114;2022-12-24T10:15:49;100185.13;;;11.52;100.00
48624;BME280;34422;45.802;16.114;2022-12-24T10:23:57;100186.34;;;11.56;100.00
48624;BME280;34422;45.802;16.114;2022-12-24T10:29:22;100183.97;;;11.42;100.00
48624;BME280;34422;45.802;16.114;2022-12-24T10:31:55;100189.78;;;11.45;100.00
48624;BME280;34422;45.802;16.114;2022-12-24T10:34:28;100192.63;;;11.50;100.00
48624;BME280;34422;45.802;16.114;2022-12-24T10:36:57;100191.16;;;11.54;100.00
48624;BME280;34422;45.802;16.114;2022-12-24T10:39:25;100190.94;;;11.56;100.00
48624;BME280;34422;45.802;16.114;2022-12-24T10:41:55;100194.69;;;11.55;100.00
48624;BME280;34422;45.802;16.114;2022-12-24T10:44:29;100196.75;;;11.59;100.00
48624;BME280;34422;45.802;16.114;2022-12-24T10:46:58;100199.59;;;11.64;100.00
48624;BME280;34422;45.802;16.114;2022-12-24T10:50:09;100182.91;;;11.67;100.00
48624;BME280;34422;45.802;16.114;2022-12-24T10:52:40;100186.22;;;11.69;100.00
48624;BME280;34422;45.802;16.114;2022-12-24T10:57:44;100189.13;;;11.74;100.00
48624;BME280;34422;45.802;16.114;2022-12-24T11:00:20;100194.88;;;11.85;100.00
48624;BME280;34422;45.802;16.114;2022-12-24T11:02:48;100209.75;;;12.00;100.00
48624;BME280;34422;45.802;16.114;2022-12-24T11:05:36;100197.13;;;12.13;100.00
48624;BME280;34422;45.802;16.114;2022-12-24T11:08:16;100192.66;;;12.18;100.00
48624;BME280;34422;45.802;16.114;2022-12-24T11:10:53;100187.19;;;12.25;100.00
48624;BME280;34422;45.802;16.114;2022-12-24T11:13:32;100184.16;;;12.15;100.00
48624;BME280;34422;45.802;16.114;2022-12-24T11:16:03;100194.50;;;12.24;100.00
48624;BME280;34422;45.802;16.114;2022-12-24T11:18:34;100201.72;;;12.30;100.00
48624;BME280;34422;45.802;16.114;2022-12-24T11:21:02;100187.88;;;12.38;100.00
48624;BME280;34422;45.802;16.114;2022-12-24T11:23:30;100199.69;;;12.44;100.00
48624;BME280;34422;45.802;16.114;2022-12-24T11:25:57;100200.66;;;12.50;100.00
48624;BME280;34422;45.802;16.114;2022-12-24T11:28:27;100199.06;;;12.60;100.00
48624;BME280;34422;45.802;16.114;2022-12-24T11:31:04;100207.66;;;12.75;100.00
48624;BME280;34422;45.802;16.114;2022-12-24T11:33:32;100207.25;;;12.90;100.00
48624;BME280;34422;45.802;16.114;2022-12-24T11:36:12;100213.69;;;12.96;100.00
48624;BME280;34422;45.802;16.114;2022-12-24T11:38:39;100229.16;;;12.95;100.00
48624;BME280;34422;45.802;16.114;2022-12-24T11:41:09;100229.59;;;12.92;100.00
48624;BME280;34422;45.802;16.114;2022-12-24T11:43:41;100229.81;;;12.91;100.00
48624;BME280;34422;45.802;16.114;2022-12-24T11:46:38;100232.47;;;12.79;100.00
48624;BME280;34422;45.802;16.114;2022-12-24T11:49:13;100231.19;;;12.63;100.00
48624;BME280;34422;45.802;16.114;2022-12-24T11:52:09;100237.31;;;12.40;100.00
48624;BME280;34422;45.802;16.114;2022-12-24T11:57:41;100231.56;;;12.49;100.00
48624;BME280;34422;45.802;16.114;2022-12-24T12:00:10;100226.75;;;12.51;100.00
48624;BME280;34422;45.802;16.114;2022-12-24T12:02:38;100241.81;;;12.46;100.00
48624;BME280;34422;45.802;16.114;2022-12-24T12:05:15;100236.56;;;12.52;100.00
48624;BME280;34422;45.802;16.114;2022-12-24T12:07:46;100229.53;;;12.62;100.00
48624;BME280;34422;45.802;16.114;2022-12-24T12:10:24;100240.94;;;12.71;100.00
48624;BME280;34422;45.802;16.114;2022-12-24T12:12:59;100231.72;;;12.72;100.00
48624;BME280;34422;45.802;16.114;2022-12-24T12:15:33;100224.50;;;12.66;100.00
48624;BME280;34422;45.802;16.114;2022-12-24T12:18:38;100217.56;;;12.52;100.00
48624;BME280;34422;45.802;16.114;2022-12-24T12:21:11;100209.13;;;12.41;100.00
48624;BME280;34422;45.802;16.114;2022-12-24T12:23:49;100215.22;;;12.37;100.00
48624;BME280;34422;45.802;16.114;2022-12-24T12:26:26;100222.69;;;12.41;100.00
48624;BME280;34422;45.802;16.114;2022-12-24T12:28:57;100229.41;;;12.39;100.00
48624;BME280;34422;45.802;16.114;2022-12-24T12:31:34;100225.41;;;12.41;100.00
48624;BME280;34422;45.802;16.114;2022-12-24T12:34:06;100225.31;;;12.48;100.00
48624;BME280;34422;45.802;16.114;2022-12-24T12:36:42;100232.19;;;12.51;100.00
48624;BME280;34422;45.802;16.114;2022-12-24T12:39:11;100230.97;;;12.46;100.00
48624;BME280;34422;45.802;16.114;2022-12-24T12:41:42;100239.28;;;12.52;100.00
48624;BME280;34422;45.802;16.114;2022-12-24T12:53:01;100237.91;;;12.61;100.00
48624;BME280;34422;45.802;16.114;2022-12-24T12:58:00;100234.44;;;12.72;100.00
48624;BME280;34422;45.802;16.114;2022-12-24T13:00:32;100230.59;;;12.79;100.00
48624;BME280;34422;45.802;16.114;2022-12-24T13:03:41;100220.34;;;12.81;100.00
48624;BME280;34422;45.802;16.114;2022-12-24T13:09:01;100221.63;;;12.79;100.00
48624;BME280;34422;45.802;16.114;2022-12-24T13:20:28;100221.78;;;12.84;100.00
48624;BME280;34422;45.802;16.114;2022-12-24T13:23:02;100222.94;;;12.88;100.00
48624;BME280;34422;45.802;16.114;2022-12-24T13:30:43;100234.44;;;12.72;100.00
48624;BME280;34422;45.802;16.114;2022-12-24T13:36:04;100237.63;;;12.51;100.00
48624;BME280;34422;45.802;16.114;2022-12-24T13:44:21;100243.38;;;12.18;100.00
48624;BME280;34422;45.802;16.114;2022-12-24T13:49:36;100235.00;;;12.01;100.00
48624;BME280;34422;45.802;16.114;2022-12-24T13:52:13;100220.72;;;11.87;100.00
48624;BME280;34422;45.802;16.114;2022-12-24T13:54:46;100218.94;;;11.74;100.00
48624;BME280;34422;45.802;16.114;2022-12-24T14:00:26;100228.44;;;11.59;100.00
48624;BME280;34422;45.802;16.114;2022-12-24T14:02:58;100228.03;;;11.55;100.00
48624;BME280;34422;45.802;16.114;2022-12-24T14:05:32;100227.25;;;11.48;100.00
48624;BME280;34422;45.802;16.114;2022-12-24T14:08:04;100238.53;;;11.45;100.00
48624;BME280;34422;45.802;16.114;2022-12-24T14:10:42;100241.06;;;11.40;100.00
48624;BME280;34422;45.802;16.114;2022-12-24T14:16:21;100273.66;;;11.27;100.00
48624;BME280;34422;45.802;16.114;2022-12-24T14:19:00;100276.16;;;11.22;100.00
48624;BME280;34422;45.802;16.114;2022-12-24T14:21:31;100295.13;;;11.22;100.00